createdAt,value
2019-02-10T00:00:48.640Z,43.53
2019-02-10T00:03:19.284Z,42.77
2019-02-10T00:05:50.079Z,42.80
2019-02-10T00:08:21.004Z,43.07
2019-02-10T00:10:51.879Z,44.83
2019-02-10T00:13:34.251Z,44.90
2019-02-10T00:16:13.210Z,43.97
2019-02-10T00:18:43.957Z,44.03
2019-02-10T00:21:14.630Z,43.67
2019-02-10T00:23:45.340Z,45.63
2019-02-10T00:26:16.156Z,46.90
2019-02-10T00:28:47.416Z,45.03
2019-02-10T00:31:18.417Z,46.33
2019-02-10T00:33:49.528Z,43.60
2019-02-10T00:36:20.566Z,45.00
2019-02-10T00:38:51.309Z,45.30
2019-02-10T00:41:22.031Z,44.80
2019-02-10T00:43:52.829Z,43.67
2019-02-10T00:46:23.524Z,44.80
2019-02-10T00:48:54.384Z,44.73
2019-02-10T00:51:25.234Z,44.47
2019-02-10T00:53:56.169Z,45.33
2019-02-10T00:56:27.263Z,44.73
2019-02-10T00:58:58.185Z,46.33
2019-02-10T01:01:29.439Z,44.90
2019-02-10T01:04:00.478Z,47.13
2019-02-10T01:06:31.475Z,47.10
2019-02-10T01:09:02.584Z,45.93
2019-02-10T01:11:33.809Z,45.70
2019-02-10T01:14:04.781Z,43.67
2019-02-10T01:16:35.779Z,45.07
2019-02-10T01:19:11.345Z,44.47
2019-02-10T01:21:43.728Z,46.20
2019-02-10T01:24:14.668Z,44.77
2019-02-10T01:26:45.938Z,43.07
2019-02-10T01:29:17.078Z,44.10
2019-02-10T01:31:48.915Z,46.73
2019-02-10T01:34:19.904Z,44.50
2019-02-10T01:36:50.924Z,45.30
2019-02-10T01:39:23.323Z,43.03
2019-02-10T01:41:54.481Z,41.97
2019-02-10T01:44:25.613Z,42.47
2019-02-10T01:46:56.199Z,43.20
2019-02-10T01:49:27.899Z,43.03
2019-02-10T01:51:58.701Z,43.53
2019-02-10T01:54:29.819Z,45.90
2019-02-10T01:57:01.679Z,44.03
2019-02-10T01:59:32.818Z,44.70
2019-02-10T02:02:03.738Z,45.10
2019-02-10T02:04:34.566Z,46.57
2019-02-10T02:07:05.099Z,46.43
2019-02-10T02:09:36.024Z,47.00
2019-02-10T02:12:06.995Z,46.50
2019-02-10T02:14:37.629Z,45.23
2019-02-10T02:17:08.203Z,46.57
2019-02-10T02:19:38.639Z,46.70
2019-02-10T02:22:09.404Z,48.13
2019-02-10T02:24:40.033Z,48.83
2019-02-10T02:27:10.973Z,47.03
2019-02-10T02:29:41.783Z,48.43
2019-02-10T02:32:13.069Z,48.13
2019-02-10T02:34:43.848Z,49.97
2019-02-10T02:37:14.393Z,47.83
2019-02-10T02:39:45.238Z,45.27
2019-02-10T02:42:15.750Z,46.13
2019-02-10T02:44:46.409Z,44.43
2019-02-10T02:47:17.241Z,45.10
2019-02-10T02:49:47.773Z,45.67
2019-02-10T02:52:18.408Z,45.73
2019-02-10T02:54:49.374Z,47.07
2019-02-10T02:57:20.080Z,47.00
2019-02-10T02:59:50.734Z,46.53
2019-02-10T03:02:21.353Z,45.97
2019-02-10T03:04:52.069Z,47.10
2019-02-10T03:07:22.639Z,46.90
2019-02-10T03:09:53.318Z,47.13
2019-02-10T03:12:24.087Z,46.60
2019-02-10T03:14:54.605Z,47.17
2019-02-10T03:17:25.214Z,45.07
2019-02-10T03:19:55.752Z,46.00
2019-02-10T03:22:26.293Z,47.00
2019-02-10T03:24:56.967Z,45.70
2019-02-10T03:27:27.451Z,46.73
2019-02-10T03:29:58.148Z,46.47
2019-02-10T03:32:28.772Z,47.20
2019-02-10T03:34:59.505Z,46.67
2019-02-10T03:37:30.118Z,47.17
2019-02-10T03:40:00.825Z,46.87
2019-02-10T03:42:31.825Z,45.50
2019-02-10T03:45:02.374Z,46.67
2019-02-10T03:47:33.119Z,46.40
2019-02-10T03:50:03.504Z,47.47
2019-02-10T03:52:34.067Z,45.90
2019-02-10T03:55:04.779Z,45.03
2019-02-10T03:57:35.805Z,44.97
2019-02-10T04:00:06.584Z,45.43
2019-02-10T04:02:37.348Z,46.03
2019-02-10T04:05:08.243Z,47.33
2019-02-10T04:07:39.224Z,48.87
2019-02-10T04:10:10.355Z,47.57
2019-02-10T04:12:41.115Z,47.80
2019-02-10T04:15:11.658Z,47.47
2019-02-10T04:17:42.439Z,47.00
2019-02-10T04:20:13.074Z,49.97
2019-02-10T04:22:43.693Z,48.87
2019-02-10T04:25:14.630Z,48.90
2019-02-10T04:27:45.438Z,48.03
2019-02-10T04:30:16.128Z,47.47
2019-02-10T04:32:47.219Z,49.20
2019-02-10T04:35:17.753Z,48.37
2019-02-10T04:37:48.526Z,47.67
2019-02-10T04:40:19.599Z,48.37
2019-02-10T04:42:50.699Z,49.07
2019-02-10T04:45:21.680Z,44.93
2019-02-10T04:47:52.268Z,44.13
2019-02-10T04:50:23.049Z,48.17
2019-02-10T04:52:53.978Z,48.80
2019-02-10T04:55:24.694Z,45.77
2019-02-10T04:57:55.624Z,46.67
2019-02-10T05:00:26.139Z,46.90
2019-02-10T05:02:57.563Z,46.40
2019-02-10T05:05:28.364Z,49.63
2019-02-10T05:07:59.374Z,50.07
2019-02-10T05:10:30.198Z,48.60
2019-02-10T05:13:00.709Z,49.30
2019-02-10T05:15:31.449Z,50.93
2019-02-10T05:18:02.266Z,49.37
2019-02-10T05:20:32.839Z,50.23
2019-02-10T05:23:04.098Z,52.83
2019-02-10T05:25:35.179Z,51.80
2019-02-10T05:28:06.088Z,52.17
2019-02-10T05:30:36.727Z,52.47
2019-02-10T05:33:07.854Z,51.60
2019-02-10T05:35:38.509Z,50.23
2019-02-10T05:38:09.081Z,51.10
2019-02-10T05:40:39.859Z,51.93
2019-02-10T05:43:10.624Z,50.07
2019-02-10T05:45:41.815Z,51.33
2019-02-10T05:48:12.351Z,51.37
2019-02-10T05:50:42.954Z,51.87
2019-02-10T05:53:13.604Z,51.40
2019-02-10T05:55:44.219Z,52.67
2019-02-10T05:58:14.866Z,53.40
2019-02-10T06:00:45.534Z,54.30
2019-02-10T06:03:16.185Z,51.57
2019-02-10T06:05:46.819Z,51.00
2019-02-10T06:08:17.320Z,50.87
2019-02-10T06:10:47.990Z,52.50
2019-02-10T06:13:18.914Z,51.73
2019-02-10T06:15:49.439Z,52.00
2019-02-10T06:18:20.110Z,52.00
2019-02-10T06:20:50.734Z,51.93
2019-02-10T06:23:21.809Z,52.60
2019-02-10T06:25:52.539Z,49.90
2019-02-10T06:28:23.334Z,53.07
2019-02-10T06:30:54.139Z,52.40
2019-02-10T06:33:24.884Z,53.27
2019-02-10T06:35:55.545Z,54.37
2019-02-10T06:38:26.296Z,54.30
2019-02-10T06:40:57.251Z,52.60
2019-02-10T06:43:28.244Z,54.50
2019-02-10T06:45:58.864Z,55.27
2019-02-10T06:48:30.004Z,54.17
2019-02-10T06:51:00.659Z,56.77
2019-02-10T06:53:31.484Z,57.63
2019-02-10T06:56:02.094Z,56.97
2019-02-10T06:58:32.871Z,57.77
2019-02-10T07:01:31.629Z,58.53
2019-02-10T07:04:20.554Z,56.70
2019-02-10T07:06:51.629Z,58.00
2019-02-10T07:09:23.669Z,59.33
2019-02-10T07:11:54.140Z,58.53
2019-02-10T07:14:27.794Z,58.03
2019-02-10T07:17:19.144Z,59.87
2019-02-10T07:20:40.484Z,58.07
2019-02-10T07:23:36.145Z,58.03
2019-02-10T07:26:18.909Z,60.87
2019-02-10T07:29:19.698Z,62.13
2019-02-10T07:32:09.739Z,60.40
2019-02-10T07:35:07.089Z,58.83
2019-02-10T07:38:26.939Z,58.23
2019-02-10T07:41:40.752Z,60.90
2019-02-10T07:44:35.444Z,60.17
2019-02-10T07:47:40.634Z,61.77
2019-02-10T07:50:32.599Z,59.23
2019-02-10T07:53:26.459Z,61.87
2019-02-10T07:56:28.817Z,59.47
2019-02-10T07:59:34.403Z,63.33
2019-02-10T08:05:51.754Z,59.73
2019-02-10T08:08:49.169Z,61.37
2019-02-10T08:11:47.639Z,58.13
2019-02-10T08:14:55.639Z,58.43
2019-02-10T08:17:37.153Z,57.27
2019-02-10T08:20:32.799Z,59.33
2019-02-10T08:23:28.804Z,58.10
2019-02-10T08:26:44.308Z,57.77
2019-02-10T08:29:33.838Z,57.23
2019-02-10T08:32:31.113Z,59.97
2019-02-10T08:35:46.924Z,57.77
2019-02-10T08:38:54.508Z,61.43
2019-02-10T08:41:52.374Z,61.23
2019-02-10T08:44:43.868Z,58.97
2019-02-10T08:47:37.204Z,60.07
2019-02-10T08:50:45.774Z,61.43
2019-02-10T08:53:20.783Z,60.27
2019-02-10T08:55:51.381Z,60.23
2019-02-10T08:58:22.044Z,58.37
2019-02-10T09:00:52.669Z,60.97
2019-02-10T09:03:24.268Z,62.60
2019-02-10T09:05:54.726Z,64.23
2019-02-10T09:08:25.579Z,63.03
2019-02-10T09:10:56.154Z,66.33
2019-02-10T09:13:26.923Z,64.57
2019-02-10T09:15:57.538Z,64.13
2019-02-10T09:18:28.319Z,65.67
2019-02-10T09:20:59.493Z,63.10
2019-02-10T09:23:30.200Z,57.07
2019-02-10T09:26:01.009Z,57.13
2019-02-10T09:28:31.498Z,56.97
2019-02-10T09:31:02.476Z,58.30
2019-02-10T09:33:33.056Z,58.70
2019-02-10T09:36:03.689Z,55.53
2019-02-10T09:38:34.789Z,54.60
2019-02-10T09:41:05.564Z,56.50
2019-02-10T09:43:36.748Z,57.30
2019-02-10T09:46:07.744Z,56.07
2019-02-10T09:48:38.655Z,61.83
2019-02-10T09:51:10.544Z,63.83
2019-02-10T09:53:41.584Z,62.43
2019-02-10T09:56:12.634Z,64.50
2019-02-10T09:58:43.098Z,64.73
2019-02-10T10:01:14.831Z,62.93
2019-02-10T10:03:45.683Z,62.33
2019-02-10T10:06:17.054Z,63.33
2019-02-10T10:08:48.044Z,61.77
2019-02-10T10:11:18.796Z,61.67
2019-02-10T10:13:51.984Z,62.37
2019-02-10T10:16:23.004Z,61.70
2019-02-10T10:18:53.563Z,62.30
2019-02-10T10:21:24.374Z,62.70
2019-02-10T10:23:54.978Z,60.60
2019-02-10T10:26:25.679Z,62.87
2019-02-10T10:29:00.338Z,60.87
2019-02-10T10:31:31.103Z,61.23
2019-02-10T10:34:07.009Z,59.63
2019-02-10T10:36:38.564Z,61.30
2019-02-10T10:39:09.345Z,60.80
2019-02-10T10:41:40.084Z,60.73
2019-02-10T10:44:11.060Z,62.00
2019-02-10T10:46:41.565Z,61.30
2019-02-10T10:49:12.348Z,65.23
2019-02-10T10:51:43.264Z,69.67
2019-02-10T10:54:13.866Z,62.43
2019-02-10T10:56:44.511Z,69.00
2019-02-10T10:59:15.264Z,79.63
2019-02-10T11:01:45.829Z,69.90
2019-02-10T11:04:16.644Z,66.57
2019-02-10T11:06:47.554Z,70.90
2019-02-10T11:09:18.204Z,85.87
2019-02-10T11:11:49.118Z,80.50
2019-02-10T11:14:20.334Z,80.03
2019-02-10T11:16:50.839Z,76.40
2019-02-10T11:19:22.294Z,68.70
2019-02-10T11:21:52.958Z,68.93
2019-02-10T11:24:28.492Z,66.27
2019-02-10T11:26:56.629Z,75.17
2019-02-10T11:29:27.303Z,68.87
2019-02-10T11:31:58.078Z,67.87
2019-02-10T11:34:28.859Z,68.50
2019-02-10T11:37:00.128Z,70.50
2019-02-10T11:39:31.514Z,75.43
2019-02-10T11:42:02.569Z,81.37
2019-02-10T11:44:33.469Z,72.27
2019-02-10T11:47:04.099Z,77.20
2019-02-10T11:49:35.118Z,77.90
2019-02-10T11:52:06.112Z,75.27
2019-02-10T11:54:36.710Z,75.53
2019-02-10T11:57:07.599Z,67.67
2019-02-10T11:59:38.294Z,65.40
2019-02-10T12:02:09.674Z,67.73
2019-02-10T12:04:41.048Z,68.73
2019-02-10T12:07:12.144Z,67.27
2019-02-10T12:09:51.382Z,69.63
2019-02-10T12:12:16.386Z,70.03
2019-02-10T12:14:47.049Z,67.73
2019-02-10T12:17:17.915Z,69.60
2019-02-10T12:19:48.824Z,68.20
2019-02-10T12:22:20.125Z,69.43
2019-02-10T12:24:50.860Z,71.40
2019-02-10T12:27:22.005Z,74.07
2019-02-10T12:29:52.864Z,73.90
2019-02-10T12:32:23.997Z,73.43
2019-02-10T12:34:55.214Z,72.13
2019-02-10T12:37:32.262Z,73.57
2019-02-10T12:39:59.808Z,69.30
2019-02-10T12:42:30.389Z,68.53
2019-02-10T12:45:01.631Z,67.70
2019-02-10T12:47:32.504Z,68.20
2019-02-10T12:50:03.223Z,69.33
2019-02-10T12:52:33.824Z,69.20
2019-02-10T12:55:04.511Z,67.47
2019-02-10T12:57:35.414Z,68.03
2019-02-10T13:00:06.989Z,66.23
2019-02-10T13:02:37.694Z,65.57
2019-02-10T13:05:08.681Z,68.23
2019-02-10T13:07:39.489Z,66.93
2019-02-10T13:10:11.714Z,68.03
2019-02-10T13:12:42.638Z,67.27
2019-02-10T13:15:13.609Z,72.30
2019-02-10T13:17:44.889Z,72.10
2019-02-10T13:20:16.179Z,69.37
2019-02-10T13:22:46.865Z,68.27
2019-02-10T13:25:17.540Z,69.27
2019-02-10T13:27:48.533Z,68.67
2019-02-10T13:30:19.309Z,73.43
2019-02-10T13:32:49.947Z,73.93
2019-02-10T13:35:21.314Z,75.83
2019-02-10T13:37:52.239Z,80.73
2019-02-10T13:40:23.544Z,78.27
2019-02-10T13:42:54.618Z,75.57
2019-02-10T13:45:25.266Z,74.13
2019-02-10T13:47:56.224Z,72.87
2019-02-10T13:50:27.352Z,75.50
2019-02-10T13:52:58.068Z,75.47
2019-02-10T13:55:28.799Z,70.83
2019-02-10T13:57:59.729Z,68.67
2019-02-10T14:00:30.649Z,71.17
2019-02-10T14:03:01.665Z,67.87
2019-02-10T14:05:32.294Z,69.87
2019-02-10T14:08:03.349Z,70.80
2019-02-10T14:10:34.154Z,69.07
2019-02-10T14:13:05.264Z,68.70
2019-02-10T14:15:36.335Z,70.27
2019-02-10T14:18:07.430Z,73.90
2019-02-10T14:20:38.989Z,70.47
2019-02-10T14:23:09.734Z,68.00
2019-02-10T14:25:40.665Z,70.27
2019-02-10T14:28:11.653Z,63.97
2019-02-10T14:30:42.344Z,70.17
2019-02-10T14:33:13.430Z,67.47
2019-02-10T14:35:44.567Z,66.30
2019-02-10T14:38:15.225Z,69.20
2019-02-10T14:40:45.846Z,66.57
2019-02-10T14:43:16.599Z,71.30
2019-02-10T14:45:47.325Z,67.37
2019-02-10T14:48:18.241Z,66.63
2019-02-10T14:50:49.256Z,70.57
2019-02-10T14:53:20.344Z,70.77
2019-02-10T14:55:51.125Z,69.53
2019-02-10T14:58:22.069Z,72.13
2019-02-10T15:00:52.825Z,67.93
2019-02-10T15:03:23.490Z,65.00
2019-02-10T15:05:54.304Z,68.83
2019-02-10T15:08:25.124Z,67.00
2019-02-10T15:10:55.694Z,69.53
2019-02-10T15:13:26.564Z,70.33
2019-02-10T15:15:57.205Z,72.50
2019-02-10T15:18:28.061Z,68.50
2019-02-10T15:20:58.784Z,69.27
2019-02-10T15:23:29.429Z,67.03
2019-02-10T15:26:00.189Z,72.13
2019-02-10T15:28:30.940Z,69.43
2019-02-10T15:31:01.505Z,70.80
2019-02-10T15:33:32.124Z,76.77
2019-02-10T15:36:02.925Z,71.37
2019-02-10T15:38:33.575Z,81.10
2019-02-10T15:41:04.228Z,74.57
2019-02-10T15:43:34.924Z,75.00
2019-02-10T15:46:05.484Z,71.70
2019-02-10T15:48:36.474Z,72.63
2019-02-10T15:51:07.283Z,72.93
2019-02-10T15:53:37.721Z,77.13
2019-02-10T15:56:08.330Z,76.77
2019-02-10T15:58:39.203Z,79.53
2019-02-10T16:01:09.824Z,82.53
2019-02-10T16:03:40.509Z,75.97
2019-02-10T16:06:11.384Z,73.40
2019-02-10T16:08:44.145Z,75.40
2019-02-10T16:11:15.094Z,74.63
2019-02-10T16:13:45.959Z,75.50
2019-02-10T16:16:19.766Z,77.50
2019-02-10T16:18:52.169Z,81.63
2019-02-10T16:21:23.059Z,79.20
2019-02-10T16:23:54.144Z,72.10
2019-02-10T16:26:24.854Z,75.63
2019-02-10T16:28:55.969Z,72.67
2019-02-10T16:31:26.749Z,76.90
2019-02-10T16:33:57.644Z,79.73
2019-02-10T16:36:28.307Z,78.40
2019-02-10T16:38:58.999Z,72.57
2019-02-10T16:41:31.466Z,74.53
2019-02-10T16:44:02.966Z,76.30
2019-02-10T16:46:34.360Z,70.63
2019-02-10T16:49:05.809Z,71.27
2019-02-10T16:51:36.744Z,69.90
2019-02-10T16:54:08.233Z,75.17
2019-02-10T16:56:39.486Z,68.30
2019-02-10T16:59:10.814Z,71.23
2019-02-10T17:01:42.849Z,69.70
2019-02-10T17:04:14.120Z,73.30
2019-02-10T17:06:45.470Z,69.83
2019-02-10T17:09:17.123Z,66.43
2019-02-10T17:11:49.944Z,72.40
2019-02-10T17:14:21.044Z,79.30
2019-02-10T17:16:53.064Z,77.87
2019-02-10T17:19:24.304Z,77.70
2019-02-10T17:21:55.629Z,83.90
2019-02-10T17:24:26.740Z,83.10
2019-02-10T17:26:57.218Z,89.20
2019-02-10T17:29:28.755Z,82.30
2019-02-10T17:31:59.889Z,87.33
2019-02-10T17:34:31.825Z,84.93
2019-02-10T17:37:03.424Z,84.67
2019-02-10T17:39:36.500Z,85.90
2019-02-10T17:42:10.259Z,94.87
2019-02-10T17:44:41.954Z,85.00
2019-02-10T17:47:13.119Z,85.87
2019-02-10T17:49:44.209Z,85.60
2019-02-10T17:52:16.404Z,87.53
2019-02-10T17:54:47.124Z,84.07
2019-02-10T17:57:19.459Z,78.57
2019-02-10T17:59:53.205Z,74.33
2019-02-10T18:02:25.696Z,74.50
2019-02-10T18:04:57.485Z,75.47
2019-02-10T18:07:29.384Z,77.33
2019-02-10T18:10:01.639Z,78.93
2019-02-10T18:12:38.142Z,76.07
2019-02-10T18:15:26.389Z,72.43
2019-02-10T18:18:27.719Z,79.63
2019-02-10T18:21:19.089Z,77.50
2019-02-10T18:24:06.784Z,76.10
2019-02-10T18:27:05.124Z,78.73
2019-02-10T18:30:03.944Z,79.50
2019-02-10T18:32:51.744Z,78.80
2019-02-10T18:35:56.345Z,74.13
2019-02-10T18:38:51.699Z,76.33
2019-02-10T18:41:44.125Z,74.20
2019-02-10T18:44:23.459Z,68.13
2019-02-10T18:47:19.749Z,78.77
2019-02-10T18:50:09.135Z,76.47
2019-02-10T18:53:04.435Z,79.40
2019-02-10T18:55:51.674Z,82.13
2019-02-10T18:58:31.514Z,82.50
2019-02-10T19:01:19.245Z,74.83
2019-02-10T19:04:14.684Z,78.97
2019-02-10T19:06:56.064Z,79.70
2019-02-10T19:09:49.625Z,77.03
2019-02-10T19:12:41.664Z,78.30
2019-02-10T19:15:39.303Z,79.03
2019-02-10T19:18:41.580Z,78.83
2019-02-10T19:21:30.979Z,81.10
2019-02-10T19:24:33.792Z,80.37
2019-02-10T19:27:59.475Z,82.03
2019-02-10T19:31:00.350Z,89.13
2019-02-10T19:34:09.784Z,91.00
2019-02-10T19:37:16.917Z,95.27
2019-02-10T19:40:10.104Z,95.57
2019-02-10T19:42:53.194Z,106.53
2019-02-10T19:45:48.863Z,98.43
2019-02-10T19:48:50.339Z,96.57
2019-02-10T19:51:36.953Z,93.03
2019-02-10T19:54:14.224Z,91.20
2019-02-10T19:57:12.546Z,85.13
2019-02-10T20:00:06.609Z,78.07
2019-02-10T20:03:14.294Z,88.40
2019-02-10T20:06:18.444Z,88.33
2019-02-10T20:09:34.229Z,83.70
2019-02-10T20:12:25.094Z,92.60
2019-02-10T20:15:06.536Z,101.67
2019-02-10T20:18:07.724Z,108.93
2019-02-10T20:20:57.880Z,114.20
2019-02-10T20:23:42.045Z,117.13
2019-02-10T20:26:38.589Z,111.27
2019-02-10T20:29:24.581Z,102.17
2019-02-10T20:32:23.710Z,112.27
2019-02-10T20:35:13.297Z,105.80
2019-02-10T20:38:15.105Z,110.87
2019-02-10T20:41:01.469Z,105.57
2019-02-10T20:43:56.806Z,100.83
2019-02-10T20:46:57.907Z,111.43
2019-02-10T20:49:48.775Z,99.83
2019-02-10T20:52:35.664Z,101.53
2019-02-10T20:55:27.909Z,98.33
2019-02-10T20:58:28.151Z,89.17
2019-02-10T21:01:21.719Z,87.73
2019-02-10T21:04:05.744Z,86.47
2019-02-10T21:06:54.171Z,87.47
2019-02-10T21:09:33.025Z,86.83
2019-02-10T21:12:28.129Z,88.67
2019-02-10T21:15:16.393Z,83.47
2019-02-10T21:18:15.159Z,82.40
2019-02-10T21:20:53.434Z,83.27
2019-02-10T21:23:58.083Z,83.37
2019-02-10T21:26:50.012Z,80.90
2019-02-10T21:29:42.991Z,77.50
2019-02-10T21:32:30.699Z,77.77
2019-02-10T21:35:26.710Z,75.07
2019-02-10T21:38:15.239Z,72.93
2019-02-10T21:41:02.054Z,75.13
2019-02-10T21:43:44.756Z,72.20
2019-02-10T21:46:30.439Z,75.00
2019-02-10T21:49:07.314Z,75.33
2019-02-10T21:51:38.536Z,75.33
2019-02-10T21:54:09.703Z,77.23
2019-02-10T21:56:40.479Z,76.43
2019-02-10T21:59:11.398Z,74.37
2019-02-10T22:01:42.073Z,74.90
2019-02-10T22:04:13.224Z,76.60
2019-02-10T22:06:44.168Z,77.90
2019-02-10T22:09:14.994Z,80.07
2019-02-10T22:11:45.603Z,80.27
2019-02-10T22:14:16.339Z,77.87
2019-02-10T22:16:47.209Z,79.33
2019-02-10T22:19:17.825Z,79.20
2019-02-10T22:21:48.903Z,77.10
2019-02-10T22:24:19.613Z,73.47
2019-02-10T22:26:53.120Z,77.03
2019-02-10T22:29:24.426Z,73.13
2019-02-10T22:31:55.083Z,71.40
2019-02-10T22:34:26.057Z,69.53
2019-02-10T22:36:56.694Z,62.00
2019-02-10T22:39:27.263Z,55.60
2019-02-10T22:41:57.945Z,62.10
2019-02-10T22:44:28.674Z,64.93
2019-02-10T22:46:59.191Z,65.13
2019-02-10T22:49:29.804Z,63.00
2019-02-10T22:52:01.063Z,61.70
2019-02-10T22:54:32.049Z,64.57
2019-02-10T22:57:02.604Z,60.17
2019-02-10T22:59:33.673Z,61.37
2019-02-10T23:02:04.623Z,59.30
2019-02-10T23:04:35.298Z,57.97
2019-02-10T23:07:06.329Z,59.07
2019-02-10T23:09:37.209Z,60.57
2019-02-10T23:12:07.959Z,62.37
2019-02-10T23:14:39.048Z,65.20
2019-02-10T23:17:09.574Z,61.83
2019-02-10T23:19:40.344Z,62.27
2019-02-10T23:22:10.919Z,63.63
2019-02-10T23:24:41.948Z,63.73
2019-02-10T23:27:12.723Z,63.03
2019-02-10T23:29:44.004Z,66.33
2019-02-10T23:32:14.664Z,65.50
2019-02-10T23:34:45.531Z,65.83
2019-02-10T23:37:16.749Z,66.57
2019-02-10T23:39:47.475Z,66.87
2019-02-10T23:42:18.154Z,68.60
2019-02-10T23:44:49.279Z,63.13
2019-02-10T23:47:19.914Z,67.10
2019-02-10T23:49:50.594Z,68.07
2019-02-10T23:52:21.559Z,67.27
2019-02-10T23:54:52.222Z,67.27
2019-02-10T23:57:23.021Z,66.67
2019-02-10T23:59:53.929Z,68.57
